Shumagin Islands - 85nm South Of Sand Point, Ak (46075) Wave Buoy

6:50pm - Mon 24th Oct 2016 All times are UTC.

  • Sig Wave height 8.2ft
  • Swell Direction
  • Peak Period 9s
  • Average Period 8s
  • Wind
    11mph, 16mph gusts
  • Sea Temp 49°f
  • Air Temp 49°f
  • Sea Pressure 1018.7mb

More Historic Weather Station data

Upgrade to MSW Pro to gain access to the past 30 days of data for over 8000 Wavebouys and Weather Stations around the globe.

Join Pro

Comparision Forecast

View Surf forecast
Mon 10/24 6:50pm 8ft 9s 8s 11 16 mph 1018.7mb 49f 49f
5:50pm 8ft 9s 8s 9 11 mph 1018.2mb 49f 49f
4:50pm 7.5ft 9s 8s 9 13 mph 1017.5mb 49f 49f
3:50pm 7ft 9s 7s 9 11 mph 1016.8mb 50f 49f
2:50pm 8ft 10s 8s 9 13 mph 1016.6mb 50f 49f
1:50pm 7.5ft 9s 7s 7 9 mph 1015.9mb 49f 49f
12:50pm 8ft 10s 8s 4 7 mph 1015.4mb 49f 49f
11:50am 8ft 10s 7s 7 9 mph 1014.9mb 49f 49f
10:50am 9ft 10s 7s 7 9 mph 1014.3mb 49f 49f
9:50am 9ft 10s 7s 2 4 mph 1013.5mb 49f 49f
8:50am 9ft 10s 7s 4 9 mph 1013.1mb 49f 48f
7:50am 9.5ft 9s 7s 7 9 mph 1012.5mb 49f 48f
6:50am 9.5ft 10s 7s 16 20 mph 1011.7mb 49f 49f
5:50am 10.5ft 10s 7s 20 22 mph 1011mb 49f 49f
4:50am 11ft 10s 7s 20 25 mph 1010.5mb 49f 48f
2:50am 12.5ft 10s 7s 25 29 mph 1010.1mb 49f 48f
1:50am 12ft 10s 7s 22 29 mph 1010.1mb 49f 48f
12:50am 12ft 10s 7s 27 31 mph 1009.9mb 49f 49f
Sun 10/23 11:50pm 10.5ft 10s 7s 27 34 mph 1010.1mb 50f 49f
10:50pm 10ft 9s 6s 29 34 mph 1010.4mb 50f 48f
9:50pm 10ft 9s 6s 29 34 mph 1010.6mb 50f 48f
8:50pm 8ft 9s 6s 27 34 mph 1011.2mb 50f 48f
7:50pm 8.5ft 14s 6s 27 31 mph 1011.3mb 49f 48f
6:50pm 6ft 5s 5s 27 31 mph 1011.6mb 49f 48f
5:50pm 6ft 14s 6s 27 31 mph 1011.9mb 50f 47f
4:50pm 5.5ft 14s 6s 25 29 mph 1012.3mb 49f 47f
3:50pm 4.5ft 13s 5s 20 25 mph 1012.7mb 49f 47f
2:50pm 4.5ft 14s 6s 20 22 mph 1013.4mb 49f 47f
1:50pm 4.5ft 14s 5s 18 22 mph 1014.3mb 49f 47f
12:50pm 4ft 15s 5s 18 20 mph 1015.2mb 50f 47f
11:50am 3.5ft 16s 5s 18 20 mph 1015.8mb 50f 46f
10:50am 3ft 15s 5s 18 22 mph 1016.1mb 50f 46f
9:50am 3ft 8s 6s 16 18 mph 1016.1mb 50f 46f
8:50am 3ft 8s 6s 13 16 mph 1016.9mb 49f 45f
7:50am 3ft 8s 6s 9 13 mph 1017.1mb 50f 45f
6:50am 3.5ft 5s 6s 7 9 mph 1017.3mb 50f 44f
5:50am 3.5ft 9s 6s 7 9 mph 1018.3mb 50f 44f
4:50am 4ft 5s 5s 2
1018.2mb 50f 44f
3:50am 4ft 5s 5s  -  2 mph 1018.9mb 50f 44f
2:50am 4.5ft 9s 5s 2 4 mph 1019.2mb 50f 44f
1:50am 4.5ft 6s 6s 4 7 mph 1019.9mb 50f 45f
12:50am 5ft 6s 6s 7 11 mph 1020.8mb 50f 45f
Sat 10/22 11:50pm 5.5ft 7s 6s 9 13 mph 1021mb 50f 45f
10:50pm 6ft 7s 6s 18 22 mph 1020.9mb 50f 44f
9:50pm 6ft 6s 6s 20 25 mph 1021.8mb 50f 44f
8:50pm 6ft 7s 5s 22 27 mph 1022mb 50f 44f
7:50pm 6ft 7s 5s 18 22 mph 1023mb 50f 44f
6:50pm 7ft 7s 6s 22 27 mph 1021.4mb 49f 44f
5:50pm 7.5ft 7s 6s 22 29 mph 1021.7mb 49f 43f
4:50pm 8ft 7s 6s 25 29 mph 1021.4mb 50f 43f
3:50pm 8ft 7s 6s 20 29 mph 1020.7mb 49f 43f
2:50pm 8ft 8s 6s 27 36 mph 1020mb 49f 43f
1:50pm 8ft 7s 6s 27 31 mph 1021.1mb 49f 43f
12:50pm 9ft 7s 6s 29 36 mph 1020.4mb 49f 43f
11:50am 9ft 7s 6s 29 36 mph 1020.2mb 49f 43f
10:50am 9ft 7s 6s 27 34 mph 1019.7mb 49f 43f
9:50am 9ft 7s 6s 27 34 mph 1019.6mb 49f 43f
8:50am 8ft 7s 6s 27 31 mph 1019.4mb 49f 44f
7:50am 9ft 7s 6s 25 31 mph 1018.8mb 50f 44f
6:50am 8ft 6s 6s 25 29 mph 1018.4mb 49f 44f
5:50am 7.5ft 7s 6s 27 34 mph 1017.6mb 49f 44f
4:50am 7ft 10s 6s 22 29 mph 1017.5mb 49f 44f
3:50am 7ft 11s 5s 25 29 mph 1016.7mb 50f 45f
2:50am 6ft 6s 5s 22 27 mph 1016.1mb 50f 45f
1:50am 6ft 6s 5s 22 29 mph 1015.7mb 50f 43f
12:50am 6ft 6s 5s 20 25 mph 1015.5mb 50f 44f
Fri 10/21 11:50pm 5.5ft 6s 5s 22 27 mph 1015.5mb 50f 44f
10:50pm 6ft 6s 5s 22 27 mph 1015.4mb 50f 44f
9:50pm 5.5ft 7s 5s 20 25 mph 1015.3mb 49f 44f
8:50pm 5.5ft 6s 5s 18 22 mph 1015.3mb 49f 44f
7:50pm 6ft 6s 5s 22 27 mph 1014.9mb 49f 44f
6:50pm 5.5ft 6s 5s 25 29 mph 1014.2mb 50f 44f
5:50pm 5.5ft 7s 5s 22 27 mph 1013.6mb 50f 44f
4:50pm 6ft 6s 5s 20 25 mph 1013.5mb 50f 44f
3:50pm 6ft 7s 5s 22 27 mph 1013mb 50f 44f
2:50pm 6.5ft 7s 5s 22 29 mph 1012.4mb 50f 44f
1:50pm 6.5ft 7s 6s 22 29 mph 1012.3mb 49f 44f
12:50pm 7ft 7s 6s 22 27 mph 1012.3mb 49f 44f
11:50am 6ft 7s 5s 22 25 mph 1012.4mb 49f 44f
10:50am 6.5ft 7s 6s 22 27 mph 1011.6mb 49f 44f
9:50am 7ft 7s 6s 20 27 mph 1011.5mb 49f 44f
8:50am 7.5ft 7s 6s 22 27 mph 1011.5mb 49f 44f
7:50am 7ft 7s 5s 25 31 mph 1010.7mb 49f 44f
6:50am 6ft 7s 5s 25 29 mph 1010mb 50f 45f
5:50am 6ft 6s 5s 25 29 mph 1009.5mb 50f 46f
4:50am 5.5ft 6s 5s 20 25 mph 1009.1mb 50f 46f
2:50am 6ft 10s 5s 18 22 mph 1007.9mb 50f 46f
1:50am 6ft 6s 6s 18 22 mph 1007.6mb 50f 47f
12:50am 6ft 7s 6s 20 25 mph 1007.3mb 50f 46f
Thu 10/20 11:50pm 6ft 7s 6s 22 27 mph 1007.3mb 50f 46f
9:50pm 6.5ft 7s 6s 16 20 mph 1007.5mb 50f 46f
8:50pm 6ft 9s 6s 18 20 mph 1007.4mb 50f 46f